Terminal Aerodrome Forecast
Issued by NWS Quad Cities IA IL

Home | Current Version | Previous Version | Text Only | Print | Product List | Glossary On
Versions: 1 2 3 4 5 6 7 8 9 10 11 12 13 14 15 16 17 18 19 20 21 22 23 24 25
000
FTUS43 KDVN 250500 AAA
TAFDBQ
TAF AMD
KDBQ 250521Z 2505/2606 32012KT 6SM BR SCT015 BKN150
      TEMPO 2505/2506 BKN015
     FM251000 29005KT 5SM BR SCT250
     FM251400 32012KT P6SM SCT250
     FM251800 29014G20KT P6SM SCT250
     FM260000 VRB04KT P6SM BKN120=

USA.gov is the U.S. government's official web portal to all federal, state and local government web resources and services.